sensor_id;sensor_type;location;lat;lon;timestamp;temperature;humidity
3912;DHT22;1971;51.778;10.330;2022-12-18T00:01:56;-11.20;1.00
3912;DHT22;1971;51.778;10.330;2022-12-18T00:04:28;-11.30;1.00
3912;DHT22;1971;51.778;10.330;2022-12-18T00:06:58;-11.20;1.00
3912;DHT22;1971;51.778;10.330;2022-12-18T00:09:28;-11.40;1.00
3912;DHT22;1971;51.778;10.330;2022-12-18T00:12:07;-11.50;1.00
3912;DHT22;1971;51.778;10.330;2022-12-18T00:14:44;-11.30;1.00
3912;DHT22;1971;51.778;10.330;2022-12-18T00:17:14;-11.60;1.00
3912;DHT22;1971;51.778;10.330;2022-12-18T00:19:44;-11.10;1.00
3912;DHT22;1971;51.778;10.330;2022-12-18T00:22:14;-11.40;1.00
3912;DHT22;1971;51.778;10.330;2022-12-18T00:24:45;-11.60;1.00
3912;DHT22;1971;51.778;10.330;2022-12-18T00:27:15;-11.50;1.00
3912;DHT22;1971;51.778;10.330;2022-12-18T00:29:48;-11.20;1.00
3912;DHT22;1971;51.778;10.330;2022-12-18T00:32:19;-11.40;1.00
3912;DHT22;1971;51.778;10.330;2022-12-18T00:34:49;-11.60;1.00
3912;DHT22;1971;51.778;10.330;2022-12-18T00:37:19;-11.40;1.00
3912;DHT22;1971;51.778;10.330;2022-12-18T00:39:50;-11.50;1.00
3912;DHT22;1971;51.778;10.330;2022-12-18T00:42:20;-11.30;1.00
3912;DHT22;1971;51.778;10.330;2022-12-18T00:45:07;-11.50;1.00
3912;DHT22;1971;51.778;10.330;2022-12-18T00:47:39;-11.30;1.00
3912;DHT22;1971;51.778;10.330;2022-12-18T00:50:10;-11.30;1.00
3912;DHT22;1971;51.778;10.330;2022-12-18T00:52:41;-11.60;1.00
3912;DHT22;1971;51.778;10.330;2022-12-18T00:55:12;-11.80;1.00
3912;DHT22;1971;51.778;10.330;2022-12-18T00:57:42;-11.90;1.00
3912;DHT22;1971;51.778;10.330;2022-12-18T01:00:16;-11.60;1.00
3912;DHT22;1971;51.778;10.330;2022-12-18T01:02:46;-11.80;1.00
3912;DHT22;1971;51.778;10.330;2022-12-18T01:05:17;-11.40;1.00
3912;DHT22;1971;51.778;10.330;2022-12-18T01:07:47;-11.70;1.00
3912;DHT22;1971;51.778;10.330;2022-12-18T01:10:19;-11.70;1.00
3912;DHT22;1971;51.778;10.330;2022-12-18T01:12:49;-11.80;1.00
3912;DHT22;1971;51.778;10.330;2022-12-18T01:15:22;-11.70;1.00
3912;DHT22;1971;51.778;10.330;2022-12-18T01:17:53;-11.40;1.00
3912;DHT22;1971;51.778;10.330;2022-12-18T01:20:26;-11.50;1.00
3912;DHT22;1971;51.778;10.330;2022-12-18T01:22:57;-11.40;1.00
3912;DHT22;1971;51.778;10.330;2022-12-18T01:25:28;-11.20;1.00
3912;DHT22;1971;51.778;10.330;2022-12-18T01:27:58;-11.40;1.00
3912;DHT22;1971;51.778;10.330;2022-12-18T01:30:34;-11.50;1.00
3912;DHT22;1971;51.778;10.330;2022-12-18T01:33:05;-11.30;1.00
3912;DHT22;1971;51.778;10.330;2022-12-18T01:35:40;-11.30;1.00
3912;DHT22;1971;51.778;10.330;2022-12-18T01:38:11;-11.50;1.00
3912;DHT22;1971;51.778;10.330;2022-12-18T01:40:41;-11.20;1.00
3912;DHT22;1971;51.778;10.330;2022-12-18T01:43:11;-11.50;1.00
3912;DHT22;1971;51.778;10.330;2022-12-18T01:45:45;-11.30;1.00
3912;DHT22;1971;51.778;10.330;2022-12-18T01:48:15;-11.70;1.00
3912;DHT22;1971;51.778;10.330;2022-12-18T01:50:45;-11.40;1.00
3912;DHT22;1971;51.778;10.330;2022-12-18T01:53:21;-11.70;1.00
3912;DHT22;1971;51.778;10.330;2022-12-18T01:55:54;-11.40;1.00
3912;DHT22;1971;51.778;10.330;2022-12-18T01:58:30;-11.40;1.00
3912;DHT22;1971;51.778;10.330;2022-12-18T02:01:05;-11.50;1.00
3912;DHT22;1971;51.778;10.330;2022-12-18T02:03:35;-11.30;1.00
3912;DHT22;1971;51.778;10.330;2022-12-18T02:06:13;-11.80;1.00
3912;DHT22;1971;51.778;10.330;2022-12-18T02:08:53;-11.80;1.00
3912;DHT22;1971;51.778;10.330;2022-12-18T02:11:34;-11.90;1.00
3912;DHT22;1971;51.778;10.330;2022-12-18T02:14:16;-11.70;1.00
3912;DHT22;1971;51.778;10.330;2022-12-18T02:16:52;-11.60;1.00
3912;DHT22;1971;51.778;10.330;2022-12-18T02:19:39;-11.60;1.00
3912;DHT22;1971;51.778;10.330;2022-12-18T02:22:24;-11.70;1.00
3912;DHT22;1971;51.778;10.330;2022-12-18T02:25:05;-11.50;1.00
3912;DHT22;1971;51.778;10.330;2022-12-18T02:27:41;-11.80;1.00
3912;DHT22;1971;51.778;10.330;2022-12-18T02:30:15;-11.90;1.00
3912;DHT22;1971;51.778;10.330;2022-12-18T02:32:48;-12.00;1.00
3912;DHT22;1971;51.778;10.330;2022-12-18T02:35:22;-11.90;1.00
3912;DHT22;1971;51.778;10.330;2022-12-18T02:37:57;-11.60;1.00
3912;DHT22;1971;51.778;10.330;2022-12-18T02:40:30;-11.70;1.00
3912;DHT22;1971;51.778;10.330;2022-12-18T02:43:11;-11.40;1.00
3912;DHT22;1971;51.778;10.330;2022-12-18T02:45:54;-11.60;1.00
3912;DHT22;1971;51.778;10.330;2022-12-18T02:48:32;-11.90;1.00
3912;DHT22;1971;51.778;10.330;2022-12-18T02:51:07;-11.60;1.00
3912;DHT22;1971;51.778;10.330;2022-12-18T02:53:43;-11.90;1.00
3912;DHT22;1971;51.778;10.330;2022-12-18T02:56:18;-11.40;1.00
3912;DHT22;1971;51.778;10.330;2022-12-18T02:58:57;-11.70;1.00
3912;DHT22;1971;51.778;10.330;2022-12-18T03:01:42;-11.80;1.00
3912;DHT22;1971;51.778;10.330;2022-12-18T03:04:16;-11.90;1.00
3912;DHT22;1971;51.778;10.330;2022-12-18T03:06:50;-11.90;1.00
3912;DHT22;1971;51.778;10.330;2022-12-18T03:09:29;-12.00;1.00
3912;DHT22;1971;51.778;10.330;2022-12-18T03:12:04;-11.80;1.00
3912;DHT22;1971;51.778;10.330;2022-12-18T03:14:55;-12.00;1.00
3912;DHT22;1971;51.778;10.330;2022-12-18T03:17:29;-11.90;1.00
3912;DHT22;1971;51.778;10.330;2022-12-18T03:20:05;-12.10;1.00
3912;DHT22;1971;51.778;10.330;2022-12-18T03:22:37;-11.60;1.00
3912;DHT22;1971;51.778;10.330;2022-12-18T03:25:12;-12.00;1.00
3912;DHT22;1971;51.778;10.330;2022-12-18T03:27:48;-11.90;1.00
3912;DHT22;1971;51.778;10.330;2022-12-18T03:30:22;-12.10;1.00
3912;DHT22;1971;51.778;10.330;2022-12-18T03:32:58;-11.90;1.00
3912;DHT22;1971;51.778;10.330;2022-12-18T03:35:35;-12.10;1.00
3912;DHT22;1971;51.778;10.330;2022-12-18T03:38:06;-12.00;1.00
3912;DHT22;1971;51.778;10.330;2022-12-18T03:40:49;-11.70;1.00
3912;DHT22;1971;51.778;10.330;2022-12-18T03:43:31;-11.60;1.00
3912;DHT22;1971;51.778;10.330;2022-12-18T03:46:10;-11.80;1.00
3912;DHT22;1971;51.778;10.330;2022-12-18T03:48:46;-11.70;1.00
3912;DHT22;1971;51.778;10.330;2022-12-18T03:51:25;-11.20;1.00
3912;DHT22;1971;51.778;10.330;2022-12-18T03:53:58;-10.50;1.00
3912;DHT22;1971;51.778;10.330;2022-12-18T03:56:38;-10.70;1.00
3912;DHT22;1971;51.778;10.330;2022-12-18T03:59:12;-10.70;1.00
3912;DHT22;1971;51.778;10.330;2022-12-18T04:01:49;-10.70;1.00
3912;DHT22;1971;51.778;10.330;2022-12-18T04:04:24;-10.20;1.00
3912;DHT22;1971;51.778;10.330;2022-12-18T04:06:58;-10.30;1.00
3912;DHT22;1971;51.778;10.330;2022-12-18T04:09:30;-10.70;1.00
3912;DHT22;1971;51.778;10.330;2022-12-18T04:12:03;-10.70;1.00
3912;DHT22;1971;51.778;10.330;2022-12-18T04:14:34;-10.50;1.00
3912;DHT22;1971;51.778;10.330;2022-12-18T04:17:09;-10.70;1.00
3912;DHT22;1971;51.778;10.330;2022-12-18T04:19:40;-10.60;1.00
3912;DHT22;1971;51.778;10.330;2022-12-18T04:22:11;-10.50;1.00
3912;DHT22;1971;51.778;10.330;2022-12-18T04:24:45;-10.40;1.00
3912;DHT22;1971;51.778;10.330;2022-12-18T04:27:24;-10.30;1.00
3912;DHT22;1971;51.778;10.330;2022-12-18T04:29:54;-10.00;1.00
3912;DHT22;1971;51.778;10.330;2022-12-18T04:32:27;-10.30;1.00
3912;DHT22;1971;51.778;10.330;2022-12-18T04:34:59;-10.00;1.00
3912;DHT22;1971;51.778;10.330;2022-12-18T04:37:32;-10.40;1.00
3912;DHT22;1971;51.778;10.330;2022-12-18T04:40:02;-10.40;1.00
3912;DHT22;1971;51.778;10.330;2022-12-18T04:42:39;-10.40;1.00
3912;DHT22;1971;51.778;10.330;2022-12-18T04:45:10;-10.60;1.00
3912;DHT22;1971;51.778;10.330;2022-12-18T04:47:42;-10.60;1.00
3912;DHT22;1971;51.778;10.330;2022-12-18T04:50:13;-10.60;1.00
3912;DHT22;1971;51.778;10.330;2022-12-18T04:52:45;-10.70;1.00
3912;DHT22;1971;51.778;10.330;2022-12-18T04:55:15;-10.90;1.00
3912;DHT22;1971;51.778;10.330;2022-12-18T04:57:46;-11.20;1.00
3912;DHT22;1971;51.778;10.330;2022-12-18T05:00:17;-11.00;1.00
3912;DHT22;1971;51.778;10.330;2022-12-18T05:02:50;-11.30;1.00
3912;DHT22;1971;51.778;10.330;2022-12-18T05:05:20;-10.90;1.00
3912;DHT22;1971;51.778;10.330;2022-12-18T05:07:50;-10.90;1.00
3912;DHT22;1971;51.778;10.330;2022-12-18T05:10:21;-11.30;1.00
3912;DHT22;1971;51.778;10.330;2022-12-18T05:12:51;-11.00;1.00
3912;DHT22;1971;51.778;10.330;2022-12-18T05:15:31;-11.10;1.00
3912;DHT22;1971;51.778;10.330;2022-12-18T05:18:05;-11.00;1.00
3912;DHT22;1971;51.778;10.330;2022-12-18T05:20:35;-10.90;1.00
3912;DHT22;1971;51.778;10.330;2022-12-18T05:23:05;-11.20;1.00
3912;DHT22;1971;51.778;10.330;2022-12-18T05:25:36;-10.90;1.00
3912;DHT22;1971;51.778;10.330;2022-12-18T05:28:07;-11.10;1.00
3912;DHT22;1971;51.778;10.330;2022-12-18T05:30:38;-11.00;1.00
3912;DHT22;1971;51.778;10.330;2022-12-18T05:33:11;-11.10;1.00
3912;DHT22;1971;51.778;10.330;2022-12-18T05:35:42;-11.10;1.00
3912;DHT22;1971;51.778;10.330;2022-12-18T05:38:12;-11.00;1.00
3912;DHT22;1971;51.778;10.330;2022-12-18T05:40:43;-11.60;1.00
3912;DHT22;1971;51.778;10.330;2022-12-18T05:43:13;-11.30;1.00
3912;DHT22;1971;51.778;10.330;2022-12-18T05:45:48;-11.00;1.00
3912;DHT22;1971;51.778;10.330;2022-12-18T05:48:21;-10.90;1.00
3912;DHT22;1971;51.778;10.330;2022-12-18T05:50:52;-10.90;1.00
3912;DHT22;1971;51.778;10.330;2022-12-18T05:53:22;-10.50;1.00
3912;DHT22;1971;51.778;10.330;2022-12-18T05:55:53;-10.70;1.00
3912;DHT22;1971;51.778;10.330;2022-12-18T05:58:23;-10.70;1.00
3912;DHT22;1971;51.778;10.330;2022-12-18T06:00:53;-10.60;1.00
3912;DHT22;1971;51.778;10.330;2022-12-18T06:03:26;-10.40;1.00
3912;DHT22;1971;51.778;10.330;2022-12-18T06:06:00;-10.50;1.00
3912;DHT22;1971;51.778;10.330;2022-12-18T06:08:30;-10.80;1.00
3912;DHT22;1971;51.778;10.330;2022-12-18T06:11:00;-10.60;1.00
3912;DHT22;1971;51.778;10.330;2022-12-18T06:13:30;-10.50;1.00
3912;DHT22;1971;51.778;10.330;2022-12-18T06:16:02;-10.50;1.00
3912;DHT22;1971;51.778;10.330;2022-12-18T06:18:35;-10.20;1.00
3912;DHT22;1971;51.778;10.330;2022-12-18T06:21:06;-9.50;1.00
3912;DHT22;1971;51.778;10.330;2022-12-18T06:23:36;-8.90;1.00
3912;DHT22;1971;51.778;10.330;2022-12-18T06:26:11;-8.60;1.00
3912;DHT22;1971;51.778;10.330;2022-12-18T06:28:41;-8.40;1.00
3912;DHT22;1971;51.778;10.330;2022-12-18T06:31:12;-7.60;1.00
3912;DHT22;1971;51.778;10.330;2022-12-18T06:33:45;-7.30;1.00
3912;DHT22;1971;51.778;10.330;2022-12-18T06:36:15;-6.70;1.00
3912;DHT22;1971;51.778;10.330;2022-12-18T06:38:46;-6.60;1.00
3912;DHT22;1971;51.778;10.330;2022-12-18T06:41:18;-6.20;1.00
3912;DHT22;1971;51.778;10.330;2022-12-18T06:43:49;-6.00;1.00
3912;DHT22;1971;51.778;10.330;2022-12-18T06:46:25;-6.00;1.00
3912;DHT22;1971;51.778;10.330;2022-12-18T06:48:58;-5.80;1.00
3912;DHT22;1971;51.778;10.330;2022-12-18T06:51:29;-6.10;1.00
3912;DHT22;1971;51.778;10.330;2022-12-18T06:53:59;-6.60;1.00
3912;DHT22;1971;51.778;10.330;2022-12-18T06:56:29;-7.00;1.00
3912;DHT22;1971;51.778;10.330;2022-12-18T06:59:00;-7.60;1.00
3912;DHT22;1971;51.778;10.330;2022-12-18T07:01:30;-7.40;1.00
3912;DHT22;1971;51.778;10.330;2022-12-18T07:04:03;-7.90;1.00
3912;DHT22;1971;51.778;10.330;2022-12-18T07:06:33;-8.20;1.00
3912;DHT22;1971;51.778;10.330;2022-12-18T07:09:03;-8.20;1.00
3912;DHT22;1971;51.778;10.330;2022-12-18T07:11:34;-8.20;1.00
3912;DHT22;1971;51.778;10.330;2022-12-18T07:14:04;-8.30;1.00
3912;DHT22;1971;51.778;10.330;2022-12-18T07:16:34;-8.80;1.00
3912;DHT22;1971;51.778;10.330;2022-12-18T07:19:07;-9.00;1.00
3912;DHT22;1971;51.778;10.330;2022-12-18T07:21:37;-9.20;1.00
3912;DHT22;1971;51.778;10.330;2022-12-18T07:24:07;-9.20;1.00
3912;DHT22;1971;51.778;10.330;2022-12-18T07:26:38;-8.60;1.00
3912;DHT22;1971;51.778;10.330;2022-12-18T07:29:08;-8.10;1.00
3912;DHT22;1971;51.778;10.330;2022-12-18T07:31:38;-7.50;1.00
3912;DHT22;1971;51.778;10.330;2022-12-18T07:34:13;-7.20;1.00
3912;DHT22;1971;51.778;10.330;2022-12-18T07:36:44;-6.60;1.00
3912;DHT22;1971;51.778;10.330;2022-12-18T07:39:14;-6.30;1.00
3912;DHT22;1971;51.778;10.330;2022-12-18T07:41:44;-6.10;1.00
3912;DHT22;1971;51.778;10.330;2022-12-18T07:44:35;-5.50;1.00
3912;DHT22;1971;51.778;10.330;2022-12-18T07:47:06;-5.40;1.00
3912;DHT22;1971;51.778;10.330;2022-12-18T07:49:41;-5.10;1.00
3912;DHT22;1971;51.778;10.330;2022-12-18T07:52:11;-5.00;1.00
3912;DHT22;1971;51.778;10.330;2022-12-18T07:54:42;-4.80;1.00
3912;DHT22;1971;51.778;10.330;2022-12-18T07:57:13;-4.50;1.00
3912;DHT22;1971;51.778;10.330;2022-12-18T08:00:04;-4.80;1.00
3912;DHT22;1971;51.778;10.330;2022-12-18T08:02:38;-4.80;1.00
3912;DHT22;1971;51.778;10.330;2022-12-18T08:05:11;-5.10;1.00
3912;DHT22;1971;51.778;10.330;2022-12-18T08:07:42;-4.90;1.00
3912;DHT22;1971;51.778;10.330;2022-12-18T08:10:13;-4.80;1.00
3912;DHT22;1971;51.778;10.330;2022-12-18T08:12:43;-4.70;1.00
3912;DHT22;1971;51.778;10.330;2022-12-18T08:15:13;-4.80;1.00
3912;DHT22;1971;51.778;10.330;2022-12-18T08:17:43;-4.60;1.00
3912;DHT22;1971;51.778;10.330;2022-12-18T08:20:16;-4.90;1.00
3912;DHT22;1971;51.778;10.330;2022-12-18T08:22:46;-4.90;1.00
3912;DHT22;1971;51.778;10.330;2022-12-18T08:25:17;-5.10;1.00
3912;DHT22;1971;51.778;10.330;2022-12-18T08:27:47;-5.20;1.00
3912;DHT22;1971;51.778;10.330;2022-12-18T08:30:18;-4.90;1.00
3912;DHT22;1971;51.778;10.330;2022-12-18T08:32:51;-4.50;1.00
3912;DHT22;1971;51.778;10.330;2022-12-18T08:35:23;-4.20;1.00
3912;DHT22;1971;51.778;10.330;2022-12-18T08:38:02;-4.40;1.00
3912;DHT22;1971;51.778;10.330;2022-12-18T08:40:32;-4.40;1.00
3912;DHT22;1971;51.778;10.330;2022-12-18T08:43:06;-4.70;1.00
3912;DHT22;1971;51.778;10.330;2022-12-18T08:45:49;-4.60;1.00
3912;DHT22;1971;51.778;10.330;2022-12-18T08:48:19;-4.80;1.00
3912;DHT22;1971;51.778;10.330;2022-12-18T08:50:57;-4.50;1.00
3912;DHT22;1971;51.778;10.330;2022-12-18T08:53:27;-4.70;1.00
3912;DHT22;1971;51.778;10.330;2022-12-18T08:56:02;-4.90;1.00
3912;DHT22;1971;51.778;10.330;2022-12-18T08:58:32;-5.00;1.00
3912;DHT22;1971;51.778;10.330;2022-12-18T09:01:04;-4.90;1.00
3912;DHT22;1971;51.778;10.330;2022-12-18T09:03:35;-4.80;1.00
3912;DHT22;1971;51.778;10.330;2022-12-18T09:06:09;-5.00;1.00
3912;DHT22;1971;51.778;10.330;2022-12-18T09:08:43;-4.70;1.00
3912;DHT22;1971;51.778;10.330;2022-12-18T09:11:18;-4.70;1.00
3912;DHT22;1971;51.778;10.330;2022-12-18T09:13:49;-4.90;1.00
3912;DHT22;1971;51.778;10.330;2022-12-18T09:16:20;-4.60;1.00
3912;DHT22;1971;51.778;10.330;2022-12-18T09:18:59;-4.30;1.00
3912;DHT22;1971;51.778;10.330;2022-12-18T09:21:33;-3.90;1.00
3912;DHT22;1971;51.778;10.330;2022-12-18T09:24:13;-3.50;1.00
3912;DHT22;1971;51.778;10.330;2022-12-18T09:26:43;-3.10;1.00
3912;DHT22;1971;51.778;10.330;2022-12-18T09:29:14;-2.90;1.00
3912;DHT22;1971;51.778;10.330;2022-12-18T09:31:45;-3.00;1.00
3912;DHT22;1971;51.778;10.330;2022-12-18T09:34:16;-3.10;1.00
3912;DHT22;1971;51.778;10.330;2022-12-18T09:36:51;-3.20;1.00
3912;DHT22;1971;51.778;10.330;2022-12-18T09:39:21;-2.80;1.00
3912;DHT22;1971;51.778;10.330;2022-12-18T09:41:52;-2.90;1.00
3912;DHT22;1971;51.778;10.330;2022-12-18T09:44:26;-2.90;1.00
3912;DHT22;1971;51.778;10.330;2022-12-18T09:47:05;-2.50;1.00
3912;DHT22;1971;51.778;10.330;2022-12-18T09:49:42;-2.10;1.00
3912;DHT22;1971;51.778;10.330;2022-12-18T09:52:21;-1.60;1.00
3912;DHT22;1971;51.778;10.330;2022-12-18T09:54:56;-1.80;1.00
3912;DHT22;1971;51.778;10.330;2022-12-18T09:57:29;-1.60;99.90
3912;DHT22;1971;51.778;10.330;2022-12-18T10:00:08;-1.50;99.90
3912;DHT22;1971;51.778;10.330;2022-12-18T10:02:40;-1.10;99.90
3912;DHT22;1971;51.778;10.330;2022-12-18T10:05:12;-1.20;99.90
3912;DHT22;1971;51.778;10.330;2022-12-18T10:08:01;-1.40;99.90
3912;DHT22;1971;51.778;10.330;2022-12-18T10:10:38;-1.40;99.90
3912;DHT22;1971;51.778;10.330;2022-12-18T10:13:21;-1.40;99.90
3912;DHT22;1971;51.778;10.330;2022-12-18T10:16:01;-1.50;99.90
3912;DHT22;1971;51.778;10.330;2022-12-18T10:21:39;-1.40;99.90
3912;DHT22;1971;51.778;10.330;2022-12-18T10:24:19;-1.40;99.90
3912;DHT22;1971;51.778;10.330;2022-12-18T10:26:52;-1.20;99.90
3912;DHT22;1971;51.778;10.330;2022-12-18T10:29:25;-1.20;99.90
3912;DHT22;1971;51.778;10.330;2022-12-18T10:31:55;-1.00;99.90
3912;DHT22;1971;51.778;10.330;2022-12-18T10:34:26;-0.90;99.90
3912;DHT22;1971;51.778;10.330;2022-12-18T10:36:56;-0.40;99.90
3912;DHT22;1971;51.778;10.330;2022-12-18T10:39:30;-0.90;99.90
3912;DHT22;1971;51.778;10.330;2022-12-18T10:42:10;-0.60;99.90
3912;DHT22;1971;51.778;10.330;2022-12-18T10:44:40;-0.40;99.90
3912;DHT22;1971;51.778;10.330;2022-12-18T10:47:14;-0.10;99.90
3912;DHT22;1971;51.778;10.330;2022-12-18T10:49:49;-0.10;99.90
3912;DHT22;1971;51.778;10.330;2022-12-18T10:52:22;-0.10;99.90
3912;DHT22;1971;51.778;10.330;2022-12-18T10:54:58;0.10;99.90
3912;DHT22;1971;51.778;10.330;2022-12-18T10:57:33;0.00;99.90
3912;DHT22;1971;51.778;10.330;2022-12-18T11:00:21;0.30;99.90
3912;DHT22;1971;51.778;10.330;2022-12-18T11:02:52;0.20;99.90
3912;DHT22;1971;51.778;10.330;2022-12-18T11:05:26;0.20;99.90
3912;DHT22;1971;51.778;10.330;2022-12-18T11:07:58;0.20;99.90
3912;DHT22;1971;51.778;10.330;2022-12-18T11:10:33;0.40;99.90
3912;DHT22;1971;51.778;10.330;2022-12-18T11:13:15;0.30;99.90
3912;DHT22;1971;51.778;10.330;2022-12-18T11:15:46;0.10;99.90
3912;DHT22;1971;51.778;10.330;2022-12-18T11:18:20;0.30;99.90
3912;DHT22;1971;51.778;10.330;2022-12-18T11:20:54;0.30;99.90
3912;DHT22;1971;51.778;10.330;2022-12-18T11:23:26;0.20;99.90
3912;DHT22;1971;51.778;10.330;2022-12-18T11:26:01;0.20;99.90
3912;DHT22;1971;51.778;10.330;2022-12-18T11:28:36;0.40;99.90
3912;DHT22;1971;51.778;10.330;2022-12-18T11:31:15;0.30;99.90
3912;DHT22;1971;51.778;10.330;2022-12-18T11:33:50;0.70;99.90
3912;DHT22;1971;51.778;10.330;2022-12-18T11:36:44;0.70;99.90
3912;DHT22;1971;51.778;10.330;2022-12-18T11:39:18;0.40;99.90
3912;DHT22;1971;51.778;10.330;2022-12-18T11:41:54;0.40;99.90
3912;DHT22;1971;51.778;10.330;2022-12-18T11:44:46;0.60;99.90
3912;DHT22;1971;51.778;10.330;2022-12-18T11:47:27;0.60;99.90
3912;DHT22;1971;51.778;10.330;2022-12-18T11:50:01;0.50;99.90
3912;DHT22;1971;51.778;10.330;2022-12-18T11:52:36;0.70;99.90
3912;DHT22;1971;51.778;10.330;2022-12-18T11:55:11;0.80;99.90
3912;DHT22;1971;51.778;10.330;2022-12-18T11:57:51;0.70;99.90
3912;DHT22;1971;51.778;10.330;2022-12-18T12:00:23;0.60;99.90
3912;DHT22;1971;51.778;10.330;2022-12-18T12:03:17;0.60;99.90
3912;DHT22;1971;51.778;10.330;2022-12-18T12:06:00;0.60;99.90
3912;DHT22;1971;51.778;10.330;2022-12-18T12:08:40;0.40;99.90
3912;DHT22;1971;51.778;10.330;2022-12-18T12:11:22;0.20;99.90
3912;DHT22;1971;51.778;10.330;2022-12-18T12:14:06;0.40;99.90
3912;DHT22;1971;51.778;10.330;2022-12-18T12:16:46;0.10;99.90
3912;DHT22;1971;51.778;10.330;2022-12-18T12:19:27;0.10;99.90
3912;DHT22;1971;51.778;10.330;2022-12-18T12:22:08;0.30;99.90
3912;DHT22;1971;51.778;10.330;2022-12-18T12:24:51;0.20;99.90
3912;DHT22;1971;51.778;10.330;2022-12-18T12:27:34;0.20;99.90
3912;DHT22;1971;51.778;10.330;2022-12-18T12:30:14;0.20;99.90
3912;DHT22;1971;51.778;10.330;2022-12-18T12:33:00;0.20;99.90
3912;DHT22;1971;51.778;10.330;2022-12-18T12:35:40;0.20;99.90
3912;DHT22;1971;51.778;10.330;2022-12-18T12:38:17;0.10;99.90
3912;DHT22;1971;51.778;10.330;2022-12-18T12:40:52;0.30;99.90
3912;DHT22;1971;51.778;10.330;2022-12-18T12:43:35;0.20;99.90
3912;DHT22;1971;51.778;10.330;2022-12-18T12:46:17;0.30;99.90
3912;DHT22;1971;51.778;10.330;2022-12-18T12:49:12;0.20;99.90
3912;DHT22;1971;51.778;10.330;2022-12-18T12:51:44;0.40;99.90
3912;DHT22;1971;51.778;10.330;2022-12-18T12:54:18;0.40;99.90
3912;DHT22;1971;51.778;10.330;2022-12-18T12:56:54;0.30;99.90
3912;DHT22;1971;51.778;10.330;2022-12-18T12:59:34;-0.10;99.90
3912;DHT22;1971;51.778;10.330;2022-12-18T13:02:20;0.10;99.90
3912;DHT22;1971;51.778;10.330;2022-12-18T13:05:00;0.30;99.90
3912;DHT22;1971;51.778;10.330;2022-12-18T13:07:37;0.20;99.90
3912;DHT22;1971;51.778;10.330;2022-12-18T13:10:24;0.40;99.90
3912;DHT22;1971;51.778;10.330;2022-12-18T13:12:56;0.20;99.90
3912;DHT22;1971;51.778;10.330;2022-12-18T13:15:29;0.40;99.90
3912;DHT22;1971;51.778;10.330;2022-12-18T13:18:19;0.30;99.90
3912;DHT22;1971;51.778;10.330;2022-12-18T13:21:01;0.40;99.90
3912;DHT22;1971;51.778;10.330;2022-12-18T13:23:34;0.50;99.90
3912;DHT22;1971;51.778;10.330;2022-12-18T13:26:31;0.50;99.90
3912;DHT22;1971;51.778;10.330;2022-12-18T13:29:03;0.80;99.90
3912;DHT22;1971;51.778;10.330;2022-12-18T13:34:49;0.70;99.90
3912;DHT22;1971;51.778;10.330;2022-12-18T13:37:40;0.40;99.90
3912;DHT22;1971;51.778;10.330;2022-12-18T13:43:47;0.80;99.90
3912;DHT22;1971;51.778;10.330;2022-12-18T13:46:21;0.40;99.90
3912;DHT22;1971;51.778;10.330;2022-12-18T13:48:59;0.30;99.90
3912;DHT22;1971;51.778;10.330;2022-12-18T13:51:34;0.20;99.90
3912;DHT22;1971;51.778;10.330;2022-12-18T13:54:17;0.20;99.90
3912;DHT22;1971;51.778;10.330;2022-12-18T13:56:48;0.40;99.90
3912;DHT22;1971;51.778;10.330;2022-12-18T13:59:20;-0.10;99.90
3912;DHT22;1971;51.778;10.330;2022-12-18T14:01:54;0.30;99.90
3912;DHT22;1971;51.778;10.330;2022-12-18T14:04:27;0.00;99.90
3912;DHT22;1971;51.778;10.330;2022-12-18T14:07:03;-0.10;99.90
3912;DHT22;1971;51.778;10.330;2022-12-18T14:09:36;0.40;99.90
3912;DHT22;1971;51.778;10.330;2022-12-18T14:12:14;0.00;99.90
3912;DHT22;1971;51.778;10.330;2022-12-18T14:15:00;-0.10;99.90
3912;DHT22;1971;51.778;10.330;2022-12-18T14:17:31;0.20;99.90
3912;DHT22;1971;51.778;10.330;2022-12-18T14:20:03;-0.10;99.90
3912;DHT22;1971;51.778;10.330;2022-12-18T14:22:43;-0.10;99.90
3912;DHT22;1971;51.778;10.330;2022-12-18T14:25:17;-0.10;99.90
3912;DHT22;1971;51.778;10.330;2022-12-18T14:27:50;-0.20;99.90
3912;DHT22;1971;51.778;10.330;2022-12-18T14:30:26;0.10;99.90
3912;DHT22;1971;51.778;10.330;2022-12-18T14:33:01;-0.10;99.90
3912;DHT22;1971;51.778;10.330;2022-12-18T14:35:32;-0.20;99.90
3912;DHT22;1971;51.778;10.330;2022-12-18T14:38:30;-0.30;99.90
3912;DHT22;1971;51.778;10.330;2022-12-18T14:41:05;-0.20;99.90
3912;DHT22;1971;51.778;10.330;2022-12-18T14:43:38;-0.30;99.90
3912;DHT22;1971;51.778;10.330;2022-12-18T14:46:25;-0.10;99.90
3912;DHT22;1971;51.778;10.330;2022-12-18T14:48:57;0.10;99.90
3912;DHT22;1971;51.778;10.330;2022-12-18T14:51:30;0.10;99.90
3912;DHT22;1971;51.778;10.330;2022-12-18T14:54:05;0.10;99.90
3912;DHT22;1971;51.778;10.330;2022-12-18T14:56:45;0.10;99.90
3912;DHT22;1971;51.778;10.330;2022-12-18T14:59:18;0.00;99.90
3912;DHT22;1971;51.778;10.330;2022-12-18T15:01:57;0.10;99.90
3912;DHT22;1971;51.778;10.330;2022-12-18T15:04:32;0.40;99.90
3912;DHT22;1971;51.778;10.330;2022-12-18T15:07:12;0.40;99.90
3912;DHT22;1971;51.778;10.330;2022-12-18T15:10:09;0.10;99.90
3912;DHT22;1971;51.778;10.330;2022-12-18T15:12:42;0.30;99.90
3912;DHT22;1971;51.778;10.330;2022-12-18T15:18:14;0.40;99.90
3912;DHT22;1971;51.778;10.330;2022-12-18T15:20:48;0.20;99.90
3912;DHT22;1971;51.778;10.330;2022-12-18T15:23:22;0.30;99.90
3912;DHT22;1971;51.778;10.330;2022-12-18T15:26:00;0.40;99.90
3912;DHT22;1971;51.778;10.330;2022-12-18T15:28:38;0.20;99.90
3912;DHT22;1971;51.778;10.330;2022-12-18T15:31:22;0.00;99.90
3912;DHT22;1971;51.778;10.330;2022-12-18T15:34:18;-0.10;99.90
3912;DHT22;1971;51.778;10.330;2022-12-18T15:36:50;0.30;99.90
3912;DHT22;1971;51.778;10.330;2022-12-18T15:39:21;0.20;99.90
3912;DHT22;1971;51.778;10.330;2022-12-18T15:41:54;0.10;99.90
3912;DHT22;1971;51.778;10.330;2022-12-18T15:44:37;0.30;99.90
3912;DHT22;1971;51.778;10.330;2022-12-18T15:47:12;0.20;99.90
3912;DHT22;1971;51.778;10.330;2022-12-18T15:49:43;0.40;99.90
3912;DHT22;1971;51.778;10.330;2022-12-18T15:52:13;0.30;99.90
3912;DHT22;1971;51.778;10.330;2022-12-18T15:54:53;0.10;99.90
3912;DHT22;1971;51.778;10.330;2022-12-18T15:57:38;0.30;99.90
3912;DHT22;1971;51.778;10.330;2022-12-18T16:00:12;0.20;99.90
3912;DHT22;1971;51.778;10.330;2022-12-18T16:02:43;0.30;99.90
3912;DHT22;1971;51.778;10.330;2022-12-18T16:05:15;0.20;99.90
3912;DHT22;1971;51.778;10.330;2022-12-18T16:07:46;0.20;99.90
3912;DHT22;1971;51.778;10.330;2022-12-18T16:10:17;0.40;99.90
3912;DHT22;1971;51.778;10.330;2022-12-18T16:12:51;0.30;99.90
3912;DHT22;1971;51.778;10.330;2022-12-18T16:15:21;0.20;99.90
3912;DHT22;1971;51.778;10.330;2022-12-18T16:17:53;0.40;99.90
3912;DHT22;1971;51.778;10.330;2022-12-18T16:20:24;0.40;99.90
3912;DHT22;1971;51.778;10.330;2022-12-18T16:22:54;0.20;99.90
3912;DHT22;1971;51.778;10.330;2022-12-18T16:25:27;0.40;99.90
3912;DHT22;1971;51.778;10.330;2022-12-18T16:28:01;0.40;99.90
3912;DHT22;1971;51.778;10.330;2022-12-18T16:30:32;0.20;99.90
3912;DHT22;1971;51.778;10.330;2022-12-18T16:33:04;0.40;99.90
3912;DHT22;1971;51.778;10.330;2022-12-18T16:35:37;0.40;99.90
3912;DHT22;1971;51.778;10.330;2022-12-18T16:38:08;0.30;99.90
3912;DHT22;1971;51.778;10.330;2022-12-18T16:40:39;0.20;99.90
3912;DHT22;1971;51.778;10.330;2022-12-18T16:43:33;0.30;99.90
3912;DHT22;1971;51.778;10.330;2022-12-18T16:46:03;0.20;99.90
3912;DHT22;1971;51.778;10.330;2022-12-18T16:48:33;0.10;99.90
3912;DHT22;1971;51.778;10.330;2022-12-18T16:51:04;0.00;99.90
3912;DHT22;1971;51.778;10.330;2022-12-18T16:53:35;0.10;99.90
3912;DHT22;1971;51.778;10.330;2022-12-18T16:56:06;0.10;99.90